• Join FlightAware (Why Join?)
  • Login
  • US Flag 
12:34PM EDT


 

Airport Tracker/Info


-or-


 

Live Flight TrackerFlight Track Log ✈ VH-OZO ✈ 18-Oct-2013 ✈ YLUW - YPJT / JAD

Flight Track Log - Related Links

Times and Time Zones

All times are in EDT time to prevent confusion due to time zone crossing. See the VH-OZO flight status page for this flight to view local times or setup timezone preferences in your user account.

Time Position Orientation Groundspeed Altitude Reporting Facility
EDT Latitude Longitude Course Direction KTS MPH feet Rate Location/Type
04:18AM -33.8769 115.1190 23° Northeast 6,500  Level Aus ATC (Calculated)
04:18AM -33.8769 115.1190 23° Northeast 6,500 -240 Level Aus ATC (Calculated)
04:20AM -33.8280 115.1431 22° Northeast  Level FlightAware Approximate
04:21AM -33.7879 115.1628 22° Northeast  Level FlightAware Approximate
04:21AM -33.8365 115.1402 22° Northeast 121 139 5,800  Level Aus ATC (RADAR)
04:22AM -33.8231 115.1440 13° North 118 136 6,100 780 Climbing Aus ATC (RADAR)
04:22AM -33.8046 115.1507 17° North 118 136 6,600 600 Climbing Aus ATC (RADAR)
04:23AM -33.7761 115.1633 20° North 133 153 7,000 300 Climbing Aus ATC (RADAR)
04:24AM -33.7536 115.1733 20° North 149 171 7,100 60 Climbing Aus ATC (RADAR)
04:24AM -33.7192 115.1939 26° Northeast 167 192 7,100  Level Aus ATC (RADAR)
04:25AM -33.7004 115.2017 19° North 171 197 7,100  Level Aus ATC (RADAR)
04:25AM -33.6734 115.2148 22° Northeast 180 207 7,100  Level Aus ATC (RADAR)
04:26AM -33.6353 115.2358 25° Northeast 182 209 7,100  Level Aus ATC (RADAR)
04:27AM -33.6166 115.2472 27° Northeast 180 207 7,100  Level Aus ATC (RADAR)
04:27AM -33.5898 115.2584 19° North 173 199 7,100  Level Aus ATC (RADAR)
04:28AM -33.5580 115.2738 22° Northeast 165 190 7,100  Level Aus ATC (RADAR)
04:29AM -33.5321 115.2849 20° North 169 194 7,100  Level Aus ATC (RADAR)
04:29AM -33.4952 115.3012 20° North 170 196 7,100  Level Aus ATC (RADAR)
04:30AM -33.4770 115.3097 21° North 169 194 7,100  Level Aus ATC (RADAR)
04:30AM -33.4539 115.3275 33° Northeast 169 194 7,100  Level Aus ATC (RADAR)
04:32AM -33.4052 115.3478 19° North 173 199 7,100  Level Aus ATC (RADAR)
04:32AM -33.3851 115.3624 31° Northeast 166 191 7,100  Level Aus ATC (RADAR)
04:33AM -33.3589 115.3732 19° North 166 191 7,100  Level Aus ATC (RADAR)
04:33AM -33.3262 115.3902 24° Northeast 168 193 7,100  Level Aus ATC (RADAR)
04:34AM -33.3015 115.4056 28° Northeast 168 193 7,100  Level Aus ATC (RADAR)
04:35AM -33.2647 115.4235 22° Northeast 172 198 7,100  Level Aus ATC (RADAR)
04:35AM -33.2468 115.4325 23° Northeast 167 192 7,100  Level Aus ATC (RADAR)
04:36AM -33.2213 115.4452 23° Northeast 165 190 7,100  Level Aus ATC (RADAR)
04:37AM -33.1806 115.4643 21° North 168 193 7,100  Level Aus ATC (RADAR)
04:37AM -33.1623 115.4728 21° North 168 193 7,100  Level Aus ATC (RADAR)
04:38AM -33.1374 115.4869 25° Northeast 168 193 7,100  Level Aus ATC (RADAR)
04:38AM -33.1076 115.5007 21° North 174 200 7,100  Level Aus ATC (RADAR)
04:39AM -33.0858 115.5101 20° North 165 190 7,100  Level Aus ATC (RADAR)
04:40AM -33.0569 115.5245 23° Northeast 163 188 7,100  Level Aus ATC (RADAR)
04:40AM -33.0319 115.5388 26° Northeast 166 191 7,100  Level Aus ATC (RADAR)
04:41AM -33.0054 115.5489 18° North 168 193 7,100  Level Aus ATC (RADAR)
04:42AM -32.9577 115.5734 23° Northeast 176 203 7,100  Level Aus ATC (RADAR)
04:42AM -32.9364 115.5856 26° Northeast 165 190 7,100  Level Aus ATC (RADAR)
04:43AM -32.9099 115.5971 20° North 168 193 7,100  Level Aus ATC (RADAR)
04:43AM -32.8804 115.6117 23° Northeast 170 196 7,100  Level Aus ATC (RADAR)
04:44AM -32.8508 115.6267 23° Northeast 172 198 7,100  Level Aus ATC (RADAR)
04:45AM -32.8171 115.6426 22° Northeast 176 203 7,100 -120 Level Aus ATC (RADAR)
04:45AM -32.7983 115.6509 20° North 173 199 7,000 -300 Descending Aus ATC (RADAR)
04:46AM -32.7700 115.6623 19° North 178 205 6,800 -480 Descending Aus ATC (RADAR)
04:47AM -32.7177 115.6865 21° North 187 215 6,200 -540 Descending Aus ATC (RADAR)
04:47AM -32.7054 115.6923 22° Northeast 189 217 6,100 -600 Descending Aus ATC (RADAR)
04:48AM -32.6730 115.7056 19° North 187 215 5,700 -720 Descending Aus ATC (RADAR)
04:49AM -32.6271 115.7191 14° North 184 212 5,000 -780 Descending Aus ATC (RADAR)
04:49AM -32.5937 115.7299 15° North 187 215 4,500 -720 Descending Aus ATC (RADAR)
04:50AM -32.5568 115.7437 17° North 186 214 4,000 -720 Descending Aus ATC (RADAR)
04:51AM -32.5286 115.7565 21° North 187 215 3,600 -600 Descending Aus ATC (RADAR)
04:52AM -32.4741 115.7785 19° North 175 201 3,000 -540 Descending Aus ATC (RADAR)
04:52AM -32.4552 115.7866 20° North 172 198 2,800 -240 Descending Aus ATC (RADAR)
04:53AM -32.4291 115.7986 21° North 170 196 2,800  Level Aus ATC (RADAR)
04:54AM -32.3937 115.8149 21° North 162 186 2,800  Level Aus ATC (RADAR)
04:54AM -32.3737 115.8247 23° Northeast 157 181 2,800  Level Aus ATC (RADAR)
04:55AM -32.3406 115.8398 21° North 153 176 2,800  Level Aus ATC (RADAR)
04:56AM -32.3244 115.8478 22° Northeast 152 175 2,800 -720 Level Aus ATC (RADAR)
04:56AM -32.3001 115.8630 28° Northeast 170 196 2,100 -780 Descending Aus ATC (RADAR)
04:57AM -32.2683 115.8840 29° Northeast 172 198 1,800 -480 Descending Aus ATC (RADAR)
04:57AM -32.2512 115.8952 29° Northeast 170 196 1,600 -300 Descending Aus ATC (RADAR)
04:58AM -32.2275 115.9096 27° Northeast 165 190 1,500  Descending Aus ATC (RADAR)
04:59AM -32.1937 115.9278 25° Northeast 142 163 1,600 60 Climbing Aus ATC (RADAR)
04:59AM -32.1760 115.9363 22° Northeast 135 155 1,600 -300 Level Aus ATC (RADAR)
05:00AM -32.1434 115.9367 North 145 167 1,200 -420 Descending Aus ATC (RADAR)
05:01AM -32.1284 115.9293 337° Northwest 139 160 1,100 -540 Descending Aus ATC (RADAR)
05:01AM -32.1144 115.9124 314° West 125 144 700 -600 Descending Aus ATC (RADAR)
05:02AM -32.1057 115.8867 292° West 89 102 300 -480 Descending Aus ATC (RADAR)